sensor_id;sensor_type;location;lat;lon;timestamp;pressure;altitude;pressure_sealevel;temperature;humidity
29815;BME280;16708;50.426;7.664;2022-11-20T00:10:37;982.35;;;2.05;100.00
29815;BME280;16708;50.426;7.664;2022-11-20T00:25:11;982.34;;;1.94;100.00
29815;BME280;16708;50.426;7.664;2022-11-20T00:39:49;982.24;;;2.10;100.00
29815;BME280;16708;50.426;7.664;2022-11-20T00:54:28;982.30;;;2.05;100.00
29815;BME280;16708;50.426;7.664;2022-11-20T01:09:06;982.35;;;2.03;100.00
29815;BME280;16708;50.426;7.664;2022-11-20T01:23:42;982.25;;;1.91;100.00
29815;BME280;16708;50.426;7.664;2022-11-20T01:38:21;982.20;;;1.96;100.00
29815;BME280;16708;50.426;7.664;2022-11-20T01:52:51;982.18;;;2.23;100.00
29815;BME280;16708;50.426;7.664;2022-11-20T02:07:29;982.18;;;2.01;100.00
29815;BME280;16708;50.426;7.664;2022-11-20T02:22:08;982.10;;;2.16;100.00
29815;BME280;16708;50.426;7.664;2022-11-20T02:36:48;982.04;;;2.13;100.00
29815;BME280;16708;50.426;7.664;2022-11-20T02:51:27;982.03;;;2.25;100.00
29815;BME280;16708;50.426;7.664;2022-11-20T03:06:04;982.00;;;2.04;100.00
29815;BME280;16708;50.426;7.664;2022-11-20T03:20:43;981.79;;;2.16;100.00
29815;BME280;16708;50.426;7.664;2022-11-20T03:35:21;981.93;;;2.19;100.00
29815;BME280;16708;50.426;7.664;2022-11-20T03:49:59;981.91;;;2.16;100.00
29815;BME280;16708;50.426;7.664;2022-11-20T04:04:38;981.70;;;2.31;100.00
29815;BME280;16708;50.426;7.664;2022-11-20T04:19:16;981.61;;;2.27;100.00
29815;BME280;16708;50.426;7.664;2022-11-20T04:33:55;981.64;;;2.51;100.00
29815;BME280;16708;50.426;7.664;2022-11-20T04:48:32;981.64;;;2.42;100.00
29815;BME280;16708;50.426;7.664;2022-11-20T05:03:12;981.58;;;2.49;100.00
29815;BME280;16708;50.426;7.664;2022-11-20T05:17:48;981.46;;;2.53;100.00
29815;BME280;16708;50.426;7.664;2022-11-20T05:32:20;981.49;;;2.39;100.00
29815;BME280;16708;50.426;7.664;2022-11-20T05:46:58;981.44;;;2.36;100.00
29815;BME280;16708;50.426;7.664;2022-11-20T06:01:35;981.35;;;2.22;100.00
29815;BME280;16708;50.426;7.664;2022-11-20T06:16:14;981.39;;;2.48;100.00
29815;BME280;16708;50.426;7.664;2022-11-20T06:30:50;981.61;;;2.40;100.00
29815;BME280;16708;50.426;7.664;2022-11-20T06:45:28;981.50;;;2.27;100.00
29815;BME280;16708;50.426;7.664;2022-11-20T07:00:05;981.62;;;2.59;100.00
29815;BME280;16708;50.426;7.664;2022-11-20T07:14:43;981.67;;;2.61;100.00
29815;BME280;16708;50.426;7.664;2022-11-20T07:29:22;981.94;;;2.68;100.00
29815;BME280;16708;50.426;7.664;2022-11-20T07:44:00;982.00;;;2.76;100.00
29815;BME280;16708;50.426;7.664;2022-11-20T07:58:40;982.27;;;2.99;100.00
29815;BME280;16708;50.426;7.664;2022-11-20T08:13:18;982.14;;;3.30;100.00
29815;BME280;16708;50.426;7.664;2022-11-20T08:27:54;982.24;;;3.25;100.00
29815;BME280;16708;50.426;7.664;2022-11-20T08:42:31;982.20;;;3.01;100.00
29815;BME280;16708;50.426;7.664;2022-11-20T08:57:01;982.26;;;3.39;100.00
29815;BME280;16708;50.426;7.664;2022-11-20T09:11:39;982.18;;;3.38;100.00
29815;BME280;16708;50.426;7.664;2022-11-20T09:26:16;982.31;;;3.12;100.00
29815;BME280;16708;50.426;7.664;2022-11-20T09:40:55;982.43;;;3.29;100.00
29815;BME280;16708;50.426;7.664;2022-11-20T09:55:29;982.17;;;3.63;100.00
29815;BME280;16708;50.426;7.664;2022-11-20T10:24:43;981.82;;;4.87;100.00
29815;BME280;16708;50.426;7.664;2022-11-20T10:39:24;981.72;;;5.24;100.00
29815;BME280;16708;50.426;7.664;2022-11-20T11:08:45;981.51;;;6.51;100.00
29815;BME280;16708;50.426;7.664;2022-11-20T11:23:25;981.34;;;6.06;100.00
29815;BME280;16708;50.426;7.664;2022-11-20T11:38:02;981.28;;;6.59;100.00
29815;BME280;16708;50.426;7.664;2022-11-20T11:52:39;980.93;;;6.34;100.00
29815;BME280;16708;50.426;7.664;2022-11-20T12:07:16;980.78;;;6.51;100.00
29815;BME280;16708;50.426;7.664;2022-11-20T12:21:53;980.55;;;6.17;100.00
29815;BME280;16708;50.426;7.664;2022-11-20T13:05:51;980.20;;;6.72;100.00
29815;BME280;16708;50.426;7.664;2022-11-20T13:20:32;979.99;;;7.24;100.00
29815;BME280;16708;50.426;7.664;2022-11-20T13:35:11;979.75;;;6.95;100.00
29815;BME280;16708;50.426;7.664;2022-11-20T13:49:48;979.57;;;7.00;100.00
29815;BME280;16708;50.426;7.664;2022-11-20T14:04:25;979.35;;;6.76;100.00
29815;BME280;16708;50.426;7.664;2022-11-20T14:19:01;979.25;;;6.49;100.00
29815;BME280;16708;50.426;7.664;2022-11-20T14:33:42;979.12;;;6.66;100.00
29815;BME280;16708;50.426;7.664;2022-11-20T14:48:17;978.94;;;6.79;100.00
29815;BME280;16708;50.426;7.664;2022-11-20T15:02:54;978.82;;;6.69;100.00
29815;BME280;16708;50.426;7.664;2022-11-20T15:17:31;978.66;;;6.80;100.00
29815;BME280;16708;50.426;7.664;2022-11-20T15:32:07;978.47;;;6.92;100.00
29815;BME280;16708;50.426;7.664;2022-11-20T15:46:43;978.64;;;6.55;100.00
29815;BME280;16708;50.426;7.664;2022-11-20T16:01:18;978.64;;;6.03;100.00
29815;BME280;16708;50.426;7.664;2022-11-20T16:15:56;978.13;;;5.89;100.00
29815;BME280;16708;50.426;7.664;2022-11-20T16:30:33;977.92;;;5.77;100.00
29815;BME280;16708;50.426;7.664;2022-11-20T16:45:11;977.58;;;5.70;100.00
29815;BME280;16708;50.426;7.664;2022-11-20T16:59:49;977.39;;;5.83;100.00
29815;BME280;16708;50.426;7.664;2022-11-20T17:14:28;977.26;;;5.96;100.00
29815;BME280;16708;50.426;7.664;2022-11-20T17:29:06;977.04;;;5.96;100.00
29815;BME280;16708;50.426;7.664;2022-11-20T17:43:44;976.93;;;5.95;100.00
29815;BME280;16708;50.426;7.664;2022-11-20T17:58:23;976.74;;;5.91;100.00
29815;BME280;16708;50.426;7.664;2022-11-20T18:12:57;976.65;;;5.74;100.00
29815;BME280;16708;50.426;7.664;2022-11-20T18:27:34;976.54;;;5.77;100.00
29815;BME280;16708;50.426;7.664;2022-11-20T18:42:12;976.26;;;5.60;100.00
29815;BME280;16708;50.426;7.664;2022-11-20T18:56:48;976.06;;;5.59;100.00
29815;BME280;16708;50.426;7.664;2022-11-20T19:11:28;975.95;;;5.70;100.00
29815;BME280;16708;50.426;7.664;2022-11-20T19:26:05;975.85;;;5.92;100.00
29815;BME280;16708;50.426;7.664;2022-11-20T19:40:44;975.77;;;6.08;100.00
29815;BME280;16708;50.426;7.664;2022-11-20T19:55:23;975.72;;;6.09;100.00
29815;BME280;16708;50.426;7.664;2022-11-20T20:09:57;975.52;;;6.13;100.00
29815;BME280;16708;50.426;7.664;2022-11-20T20:24:34;975.69;;;6.03;100.00
29815;BME280;16708;50.426;7.664;2022-11-20T20:39:12;975.87;;;5.93;100.00
29815;BME280;16708;50.426;7.664;2022-11-20T20:53:51;975.78;;;6.10;100.00
29815;BME280;16708;50.426;7.664;2022-11-20T21:08:28;975.72;;;6.01;100.00
29815;BME280;16708;50.426;7.664;2022-11-20T21:23:07;975.58;;;5.76;100.00
29815;BME280;16708;50.426;7.664;2022-11-20T21:37:46;975.64;;;5.71;100.00
29815;BME280;16708;50.426;7.664;2022-11-20T21:52:23;975.64;;;5.65;100.00
29815;BME280;16708;50.426;7.664;2022-11-20T22:07:02;975.74;;;5.47;100.00
29815;BME280;16708;50.426;7.664;2022-11-20T22:21:41;975.82;;;5.57;100.00
29815;BME280;16708;50.426;7.664;2022-11-20T22:36:20;975.86;;;5.45;100.00
29815;BME280;16708;50.426;7.664;2022-11-20T22:50:59;976.01;;;5.21;100.00
29815;BME280;16708;50.426;7.664;2022-11-20T23:05:37;976.11;;;5.22;100.00
29815;BME280;16708;50.426;7.664;2022-11-20T23:20:16;976.13;;;5.27;100.00
29815;BME280;16708;50.426;7.664;2022-11-20T23:34:55;976.15;;;5.35;100.00
29815;BME280;16708;50.426;7.664;2022-11-20T23:49:34;976.20;;;5.26;100.00
